Time;durP1;ratioP1;P1;durP2;ratioP2;P2;SDS_P1;SDS_P2;PMS_P1;PMS_P2;Temp;Humidity;BMP_temperature;BMP_pressure;BME280_temperature;BME280_humidity;BME280_pressure;Samples;Min_cycle;Max_cycle;Signal;HPM_P1;HPM_P2
2022/05/19 00:01:48;;;;;;;;;;;19.90;38.80;;;;;;4933831;29;19918;-63
2022/05/19 00:04:14;;;;;;;;;;;19.90;39.00;;;;;;4937298;29;20282;-63
2022/05/19 00:06:39;;;;;;;;;;;19.80;39.10;;;;;;4937373;29;19998;-63
2022/05/19 00:09:05;;;;;;;;;;;19.70;39.30;;;;;;4937923;29;19910;-63
2022/05/19 00:11:34;;;;;;;;;;;19.80;39.20;;;;;;4937522;29;20380;-62
2022/05/19 00:14:00;;;;;;;;;;;19.90;39.20;;;;;;4937442;29;20007;-62
2022/05/19 00:16:26;;;;;;;;;;;19.90;39.00;;;;;;4937292;29;20311;-62
2022/05/19 00:18:52;;;;;;;;;;;19.80;39.50;;;;;;4937343;29;19911;-62
2022/05/19 00:21:18;;;;;;;;;;;19.60;39.50;;;;;;4937289;29;20012;-62
2022/05/19 00:23:44;;;;;;;;;;;19.60;39.50;;;;;;4937731;29;19990;-63
2022/05/19 00:26:09;;;;;;;;;;;19.60;39.50;;;;;;4937218;29;20450;-62
2022/05/19 00:28:35;;;;;;;;;;;19.70;39.60;;;;;;4937430;29;20040;-61
2022/05/19 00:31:01;;;;;;;;;;;19.90;39.10;;;;;;4937420;29;20275;-62
2022/05/19 00:33:26;;;;;;;;;;;19.90;39.30;;;;;;4936933;29;20013;-63
2022/05/19 00:35:52;;;;;;;;;;;19.80;39.00;;;;;;4937195;29;19953;-63
2022/05/19 00:38:18;;;;;;;;;;;19.70;39.50;;;;;;4937457;29;19958;-63
2022/05/19 00:40:45;;;;;;;;;;;19.70;39.40;;;;;;4937194;29;19910;-66
2022/05/19 00:43:11;;;;;;;;;;;19.70;39.70;;;;;;4937069;29;19958;-65
2022/05/19 00:45:42;;;;;;;;;;;19.70;39.60;;;;;;4937172;29;19915;-64
2022/05/19 00:48:24;;;;;;;;;;;19.70;39.80;;;;;;4937121;29;20002;-63
2022/05/19 00:50:58;;;;;;;;;;;19.80;39.90;;;;;;4936971;29;20382;-63
2022/05/19 00:53:23;;;;;;;;;;;19.60;39.80;;;;;;4919967;29;19926;-64
2022/05/19 00:55:50;;;;;;;;;;;19.60;40.30;;;;;;4936858;29;20308;-64
2022/05/19 00:58:22;;;;;;;;;;;19.40;40.60;;;;;;4937097;29;19910;-64
2022/05/19 01:00:47;;;;;;;;;;;19.50;40.70;;;;;;4936833;29;20013;-63
2022/05/19 01:03:15;;;;;;;;;;;19.50;40.30;;;;;;4937135;29;19961;-63
2022/05/19 01:05:43;;;;;;;;;;;19.50;40.30;;;;;;4936889;29;20371;-63
2022/05/19 01:08:16;;;;;;;;;;;19.50;40.00;;;;;;4936762;29;19915;-65
2022/05/19 01:10:42;;;;;;;;;;;19.50;39.90;;;;;;4936928;29;19918;-63
2022/05/19 01:13:08;;;;;;;;;;;19.40;40.40;;;;;;4936443;29;19910;-65
2022/05/19 01:15:37;;;;;;;;;;;19.50;40.50;;;;;;4936848;29;19966;-63
2022/05/19 01:18:03;;;;;;;;;;;19.10;40.80;;;;;;4919514;29;19910;-63
2022/05/19 01:20:29;;;;;;;;;;;19.30;41.30;;;;;;4936644;29;19925;-63
2022/05/19 01:22:54;;;;;;;;;;;19.20;41.00;;;;;;4936738;29;19918;-63
2022/05/19 01:25:46;;;;;;;;;;;19.10;40.70;;;;;;4936475;29;19911;-64
2022/05/19 01:28:11;;;;;;;;;;;19.20;41.40;;;;;;4935410;29;20009;-63
2022/05/19 01:30:37;;;;;;;;;;;19.20;41.00;;;;;;4936611;29;20009;-63
2022/05/19 01:33:03;;;;;;;;;;;18.70;41.20;;;;;;4936584;29;19918;-63
2022/05/19 01:35:33;;;;;;;;;;;18.80;42.30;;;;;;4936458;29;19923;-62
2022/05/19 01:38:02;;;;;;;;;;;18.70;41.60;;;;;;4936474;29;19922;-64
2022/05/19 01:40:31;;;;;;;;;;;18.60;42.00;;;;;;4936607;29;19911;-63
2022/05/19 01:42:56;;;;;;;;;;;18.60;42.20;;;;;;4936363;29;19911;-64
2022/05/19 01:45:41;;;;;;;;;;;18.70;42.20;;;;;;4936378;29;20271;-62
2022/05/19 01:48:09;;;;;;;;;;;18.70;41.90;;;;;;4936623;29;19961;-63
2022/05/19 01:50:37;;;;;;;;;;;18.90;42.20;;;;;;4936354;29;20364;-63
2022/05/19 01:53:22;;;;;;;;;;;19.00;41.30;;;;;;4936144;29;20291;-62
2022/05/19 01:56:02;;;;;;;;;;;18.80;41.20;;;;;;4936403;29;19919;-63
2022/05/19 01:58:34;;;;;;;;;;;19.00;41.90;;;;;;4936604;29;19917;-62
2022/05/19 02:01:01;;;;;;;;;;;18.80;41.60;;;;;;4919234;29;20449;-62
2022/05/19 02:03:40;;;;;;;;;;;18.50;42.10;;;;;;4919210;29;19915;-63
2022/05/19 02:06:06;;;;;;;;;;;18.60;42.70;;;;;;4936294;29;19974;-61
2022/05/19 02:08:41;;;;;;;;;;;18.60;42.50;;;;;;4936422;29;20356;-60
2022/05/19 02:11:10;;;;;;;;;;;18.60;42.10;;;;;;4935964;29;20006;-61
2022/05/19 02:13:36;;;;;;;;;;;18.60;41.80;;;;;;4936305;29;19919;-66
2022/05/19 02:16:05;;;;;;;;;;;18.70;41.40;;;;;;4936340;29;19997;-63
2022/05/19 02:18:31;;;;;;;;;;;18.60;41.40;;;;;;4936331;29;20001;-64
2022/05/19 02:20:57;;;;;;;;;;;18.60;41.40;;;;;;4936143;29;20354;-64
2022/05/19 02:23:24;;;;;;;;;;;18.60;41.20;;;;;;4936096;29;19911;-63
2022/05/19 02:25:50;;;;;;;;;;;18.60;40.80;;;;;;4936371;29;19923;-63
2022/05/19 02:28:16;;;;;;;;;;;18.70;40.30;;;;;;4937740;29;19915;-62
2022/05/19 02:30:42;;;;;;;;;;;18.70;40.40;;;;;;4939532;29;20378;-66
2022/05/19 02:33:08;;;;;;;;;;;18.70;40.40;;;;;;4939383;29;19965;-65
2022/05/19 02:35:34;;;;;;;;;;;18.80;40.40;;;;;;4939532;29;19911;-65
2022/05/19 02:38:00;;;;;;;;;;;18.90;39.50;;;;;;4939470;29;19934;-64
2022/05/19 02:40:28;;;;;;;;;;;18.90;39.40;;;;;;4939387;29;19914;-65
2022/05/19 02:42:53;;;;;;;;;;;18.80;39.60;;;;;;4939220;29;19911;-63
2022/05/19 02:45:20;;;;;;;;;;;18.70;39.50;;;;;;4939226;29;20431;-65
2022/05/19 02:47:45;;;;;;;;;;;18.80;39.30;;;;;;4939371;29;19911;-65
2022/05/19 02:50:11;;;;;;;;;;;18.80;39.10;;;;;;4939383;29;19910;-63
2022/05/19 02:52:37;;;;;;;;;;;18.70;39.20;;;;;;4939478;29;19910;-64
2022/05/19 02:55:03;;;;;;;;;;;18.80;39.40;;;;;;4939033;29;20363;-63
2022/05/19 02:57:28;;;;;;;;;;;18.80;39.10;;;;;;4938826;29;19961;-65
2022/05/19 02:59:54;;;;;;;;;;;18.80;39.60;;;;;;4939115;29;19971;-65
2022/05/19 03:02:19;;;;;;;;;;;18.80;39.10;;;;;;4939092;29;19911;-65
2022/05/19 03:04:45;;;;;;;;;;;18.70;39.50;;;;;;4939229;29;20002;-65
2022/05/19 03:07:10;;;;;;;;;;;18.60;39.70;;;;;;4939107;29;19910;-65
2022/05/19 03:09:38;;;;;;;;;;;18.50;40.20;;;;;;4939001;29;20009;-65
2022/05/19 03:12:04;;;;;;;;;;;18.50;39.70;;;;;;4938799;29;19969;-63
2022/05/19 03:14:30;;;;;;;;;;;18.40;40.00;;;;;;4938813;29;20017;-64
2022/05/19 03:16:55;;;;;;;;;;;18.40;40.30;;;;;;4938744;29;19918;-66
2022/05/19 03:19:21;;;;;;;;;;;18.40;40.00;;;;;;4938732;29;19911;-65
2022/05/19 03:21:47;;;;;;;;;;;18.30;40.20;;;;;;4938485;29;19953;-63
2022/05/19 03:24:12;;;;;;;;;;;18.20;40.70;;;;;;4938416;29;19915;-64
2022/05/19 03:26:38;;;;;;;;;;;18.30;40.50;;;;;;4938224;29;19971;-64
2022/05/19 03:29:04;;;;;;;;;;;18.30;40.30;;;;;;4938702;29;20013;-63
2022/05/19 03:31:30;;;;;;;;;;;18.20;40.10;;;;;;4938628;29;19918;-63
2022/05/19 03:33:55;;;;;;;;;;;18.30;40.40;;;;;;4938136;29;19919;-63
2022/05/19 03:36:21;;;;;;;;;;;18.30;39.80;;;;;;4938342;29;19953;-64
2022/05/19 03:38:47;;;;;;;;;;;18.40;39.80;;;;;;4937875;29;19911;-64
2022/05/19 03:41:13;;;;;;;;;;;18.30;39.70;;;;;;4937485;29;19911;-60
2022/05/19 03:43:38;;;;;;;;;;;18.40;39.90;;;;;;4938307;29;19977;-62
2022/05/19 03:46:04;;;;;;;;;;;18.30;39.90;;;;;;4938048;29;19921;-63
2022/05/19 03:48:36;;;;;;;;;;;18.20;40.20;;;;;;4938037;29;20426;-63
2022/05/19 03:51:04;;;;;;;;;;;18.20;40.60;;;;;;4937955;29;20397;-62
2022/05/19 03:53:29;;;;;;;;;;;18.20;40.40;;;;;;4938013;29;19927;-62
2022/05/19 03:55:55;;;;;;;;;;;18.10;41.00;;;;;;4938011;29;20275;-63
2022/05/19 03:58:21;;;;;;;;;;;18.20;40.30;;;;;;4938125;29;19911;-64
2022/05/19 04:00:46;;;;;;;;;;;18.20;40.50;;;;;;4952715;29;19911;-63
2022/05/19 04:03:12;;;;;;;;;;;18.20;40.60;;;;;;4937750;29;20384;-63
2022/05/19 04:05:38;;;;;;;;;;;18.20;40.60;;;;;;4937824;29;19915;-63
2022/05/19 04:08:03;;;;;;;;;;;18.20;40.60;;;;;;4937738;29;20283;-61
2022/05/19 04:10:29;;;;;;;;;;;18.30;40.10;;;;;;4937386;29;19915;-63
2022/05/19 04:12:55;;;;;;;;;;;18.30;40.10;;;;;;4937563;29;19954;-63
2022/05/19 04:15:20;;;;;;;;;;;18.20;40.50;;;;;;4937655;29;19919;-63
2022/05/19 04:17:46;;;;;;;;;;;18.20;40.10;;;;;;4937561;29;19990;-62
2022/05/19 04:20:12;;;;;;;;;;;18.20;40.30;;;;;;4937671;29;19917;-62
2022/05/19 04:22:37;;;;;;;;;;;18.20;41.10;;;;;;4937327;29;20002;-61
2022/05/19 04:25:04;;;;;;;;;;;18.20;40.60;;;;;;4937550;29;20270;-61
2022/05/19 04:27:30;;;;;;;;;;;18.20;40.20;;;;;;4937131;29;20017;-63
2022/05/19 04:29:56;;;;;;;;;;;18.20;40.80;;;;;;4937557;29;19953;-61
2022/05/19 04:32:22;;;;;;;;;;;18.10;41.10;;;;;;4937378;29;19918;-63
2022/05/19 04:34:47;;;;;;;;;;;18.20;40.50;;;;;;4937462;29;19919;-63
2022/05/19 04:37:13;;;;;;;;;;;18.20;41.00;;;;;;4937301;29;20255;-62
2022/05/19 04:39:38;;;;;;;;;;;18.20;41.00;;;;;;4937143;29;19914;-63
2022/05/19 04:42:11;;;;;;;;;;;18.20;40.60;;;;;;4937075;29;20009;-62
2022/05/19 04:44:37;;;;;;;;;;;18.20;41.20;;;;;;4937098;29;20021;-63
2022/05/19 04:47:03;;;;;;;;;;;18.20;40.60;;;;;;4937171;29;19998;-63
2022/05/19 04:49:29;;;;;;;;;;;18.20;40.20;;;;;;4937166;29;20022;-63
2022/05/19 04:51:54;;;;;;;;;;;18.20;40.50;;;;;;4936693;29;20454;-62
2022/05/19 04:54:20;;;;;;;;;;;18.20;40.20;;;;;;4937174;29;19918;-61
2022/05/19 04:56:45;;;;;;;;;;;18.20;40.10;;;;;;4936795;29;19911;-63
2022/05/19 04:59:14;;;;;;;;;;;18.30;39.80;;;;;;4936963;29;19982;-61
2022/05/19 05:01:46;;;;;;;;;;;18.30;40.00;;;;;;4936763;29;19915;-63
2022/05/19 05:04:12;;;;;;;;;;;18.40;39.30;;;;;;4936661;29;19911;-63
2022/05/19 05:06:38;;;;;;;;;;;18.40;39.40;;;;;;4936610;29;19915;-62
2022/05/19 05:09:04;;;;;;;;;;;18.40;39.30;;;;;;4936661;29;19917;-62
2022/05/19 05:11:30;;;;;;;;;;;18.40;38.90;;;;;;4936428;29;20330;-64
2022/05/19 05:13:55;;;;;;;;;;;18.40;37.70;;;;;;4936770;29;20338;-63
2022/05/19 05:16:21;;;;;;;;;;;18.50;38.10;;;;;;4936612;29;20409;-63
2022/05/19 05:18:46;;;;;;;;;;;18.50;38.30;;;;;;4937066;29;19911;-55
2022/05/19 05:21:13;;;;;;;;;;;18.60;38.20;;;;;;4936385;29;19918;-58
2022/05/19 05:23:39;;;;;;;;;;;18.90;40.60;;;;;;4936583;29;19919;-60
2022/05/19 05:26:06;;;;;;;;;;;19.10;38.40;;;;;;4936330;29;19946;-60
2022/05/19 05:28:32;;;;;;;;;;;19.20;36.80;;;;;;4936468;29;20363;-57
2022/05/19 05:30:58;;;;;;;;;;;19.40;36.80;;;;;;4936611;29;20294;-63
2022/05/19 05:33:23;;;;;;;;;;;19.40;35.80;;;;;;4936434;29;19918;-59
2022/05/19 05:35:49;;;;;;;;;;;19.50;34.70;;;;;;4936347;29;19915;-58
2022/05/19 05:38:14;;;;;;;;;;;19.50;33.90;;;;;;4936640;29;20050;-58
2022/05/19 05:40:40;;;;;;;;;;;19.50;33.60;;;;;;4936725;29;19911;-63
2022/05/19 05:43:07;;;;;;;;;;;19.80;33.00;;;;;;4936406;29;20323;-59
2022/05/19 05:45:32;;;;;;;;;;;20.30;33.60;;;;;;4936345;29;19910;-61
2022/05/19 05:47:58;;;;;;;;;;;20.60;31.40;;;;;;4936029;29;19911;-70
2022/05/19 05:50:24;;;;;;;;;;;20.90;31.20;;;;;;4936038;29;19911;-62
2022/05/19 05:52:49;;;;;;;;;;;21.20;29.30;;;;;;4935974;29;20001;-66
2022/05/19 05:55:15;;;;;;;;;;;21.50;28.70;;;;;;4936189;29;20022;-64
2022/05/19 05:57:41;;;;;;;;;;;21.90;29.20;;;;;;4936038;29;19966;-64
2022/05/19 06:00:08;;;;;;;;;;;22.10;28.30;;;;;;4935560;29;20359;-62
2022/05/19 06:02:33;;;;;;;;;;;22.50;27.90;;;;;;4936168;29;19967;-59
2022/05/19 06:04:59;;;;;;;;;;;22.70;27.20;;;;;;4939535;29;19919;-57
2022/05/19 06:07:27;;;;;;;;;;;22.90;27.40;;;;;;4939744;29;19985;-58
2022/05/19 06:09:53;;;;;;;;;;;23.10;26.60;;;;;;4939746;29;20283;-59
2022/05/19 06:12:19;;;;;;;;;;;23.40;27.40;;;;;;4939690;29;19914;-58
2022/05/19 06:14:45;;;;;;;;;;;23.60;26.00;;;;;;4939418;29;19919;-58
2022/05/19 06:17:10;;;;;;;;;;;23.80;27.30;;;;;;4939609;29;19911;-57
2022/05/19 06:19:36;;;;;;;;;;;24.10;24.90;;;;;;4939450;29;19914;-60
2022/05/19 06:22:02;;;;;;;;;;;24.10;24.50;;;;;;4939341;29;19911;-60
2022/05/19 06:24:28;;;;;;;;;;;24.10;25.20;;;;;;4939353;29;19922;-62
2022/05/19 06:26:53;;;;;;;;;;;24.30;25.50;;;;;;4939674;29;19935;-57
2022/05/19 06:29:19;;;;;;;;;;;24.60;25.60;;;;;;4938726;29;19938;-58
2022/05/19 06:31:45;;;;;;;;;;;24.60;24.50;;;;;;4938627;29;19911;-58
2022/05/19 06:34:11;;;;;;;;;;;24.80;24.50;;;;;;4946079;29;19970;-61
2022/05/19 06:36:36;;;;;;;;;;;24.80;24.80;;;;;;4938978;29;19915;-60
2022/05/19 06:39:02;;;;;;;;;;;24.90;25.60;;;;;;4938447;29;19914;-60
2022/05/19 06:44:12;;;;;;;;;;;25.30;25.70;;;;;;4946591;29;20002;-58
2022/05/19 06:46:38;;;;;;;;;;;25.50;25.20;;;;;;4947897;29;20296;-59
2022/05/19 06:49:04;;;;;;;;;;;25.70;25.30;;;;;;4946874;29;20001;-58
2022/05/19 06:51:30;;;;;;;;;;;25.90;25.50;;;;;;4948814;29;19917;-58
2022/05/19 06:53:56;;;;;;;;;;;26.00;24.50;;;;;;4947527;29;20290;-58
2022/05/19 06:56:22;;;;;;;;;;;26.10;24.30;;;;;;4947073;29;19997;-59
2022/05/19 06:58:47;;;;;;;;;;;26.20;24.50;;;;;;4948860;29;19910;-63
2022/05/19 07:01:13;;;;;;;;;;;26.40;24.80;;;;;;4957364;29;20448;-64
2022/05/19 07:03:39;;;;;;;;;;;26.50;24.20;;;;;;4957785;29;19913;-63
2022/05/19 07:06:04;;;;;;;;;;;26.60;24.30;;;;;;4957797;29;19917;-64
2022/05/19 07:08:30;;;;;;;;;;;26.80;24.80;;;;;;4957753;29;19914;-64
2022/05/19 07:10:55;;;;;;;;;;;26.90;24.00;;;;;;4957652;29;19914;-63
2022/05/19 07:13:21;;;;;;;;;;;27.00;23.00;;;;;;4957007;28;19939;-65
2022/05/19 07:15:46;;;;;;;;;;;27.10;23.80;;;;;;4948221;29;20362;-63
2022/05/19 07:18:12;;;;;;;;;;;27.20;23.80;;;;;;4941394;29;19911;-63
2022/05/19 07:20:43;;;;;;;;;;;27.30;22.40;;;;;;4947320;29;19953;-61
2022/05/19 07:23:10;;;;;;;;;;;27.30;21.10;;;;;;4943921;29;20386;-64
2022/05/19 07:25:36;;;;;;;;;;;27.40;21.00;;;;;;4947281;29;19922;-64
2022/05/19 07:28:02;;;;;;;;;;;27.40;20.70;;;;;;4947749;29;19911;-61
2022/05/19 07:30:27;;;;;;;;;;;27.40;20.80;;;;;;4946049;29;19952;-63
2022/05/19 07:32:54;;;;;;;;;;;27.40;21.70;;;;;;4947515;29;20255;-62
2022/05/19 07:35:20;;;;;;;;;;;27.40;21.80;;;;;;4950109;29;19973;-63
2022/05/19 07:37:46;;;;;;;;;;;27.40;20.40;;;;;;4956884;29;19918;-63
2022/05/19 07:40:12;;;;;;;;;;;27.30;21.00;;;;;;4957186;29;19916;-62
2022/05/19 07:42:38;;;;;;;;;;;27.30;22.40;;;;;;4957154;29;19914;-62
2022/05/19 07:45:05;;;;;;;;;;;27.30;23.60;;;;;;4957046;29;19911;-62
2022/05/19 07:47:31;;;;;;;;;;;27.40;22.20;;;;;;4957062;29;19914;-61
2022/05/19 07:49:56;;;;;;;;;;;27.40;22.00;;;;;;4956995;29;20426;-62
2022/05/19 07:52:22;;;;;;;;;;;27.40;23.00;;;;;;4956230;29;19914;-61
2022/05/19 07:54:48;;;;;;;;;;;27.30;21.90;;;;;;4956653;29;20290;-63
2022/05/19 07:57:14;;;;;;;;;;;27.20;21.50;;;;;;4956994;29;19917;-61
2022/05/19 07:59:39;;;;;;;;;;;27.10;22.30;;;;;;4956735;29;20003;-63
2022/05/19 08:02:06;;;;;;;;;;;26.90;23.70;;;;;;4956772;29;20366;-62
2022/05/19 08:04:32;;;;;;;;;;;26.80;22.10;;;;;;4956872;29;19911;-60
2022/05/19 08:06:57;;;;;;;;;;;26.70;22.00;;;;;;4956570;29;19911;-61
2022/05/19 08:12:13;;;;;;;;;;;26.80;23.50;;;;;;4956672;29;20014;-63
2022/05/19 08:17:23;;;;;;;;;;;26.70;22.70;;;;;;4937162;29;19958;-60
2022/05/19 08:19:49;;;;;;;;;;;26.70;24.70;;;;;;4944629;29;20005;-62
2022/05/19 08:22:14;;;;;;;;;;;26.70;24.50;;;;;;4944435;29;19918;-61
2022/05/19 08:24:41;;;;;;;;;;;26.80;25.00;;;;;;4945203;29;19914;-62
2022/05/19 08:27:07;;;;;;;;;;;26.90;23.10;;;;;;4958525;23;19930;-66
2022/05/19 08:29:33;;;;;;;;;;;26.80;23.50;;;;;;4953398;29;20274;-64
2022/05/19 08:31:59;;;;;;;;;;;26.80;24.30;;;;;;4956266;29;19914;-65
2022/05/19 08:34:24;;;;;;;;;;;26.70;23.60;;;;;;4956588;29;19918;-71
2022/05/19 08:36:50;;;;;;;;;;;26.70;24.00;;;;;;4950225;29;19921;-72
2022/05/19 08:39:18;;;;;;;;;;;26.70;25.10;;;;;;4944846;29;19950;-74
2022/05/19 08:41:51;;;;;;;;;;;26.80;25.10;;;;;;4947548;29;19911;-70
2022/05/19 08:44:22;;;;;;;;;;;26.80;24.80;;;;;;4945066;29;19939;-70
2022/05/19 08:46:48;;;;;;;;;;;26.70;25.30;;;;;;4950295;29;20018;-73
2022/05/19 08:49:17;;;;;;;;;;;26.60;25.00;;;;;;4955670;29;19974;-70
2022/05/19 08:51:48;;;;;;;;;;;26.60;24.60;;;;;;4955766;29;19979;-68
2022/05/19 08:54:16;;;;;;;;;;;26.50;26.30;;;;;;4956193;29;19970;-70
2022/05/19 08:56:53;;;;;;;;;;;26.50;26.70;;;;;;4949689;29;19914;-68
2022/05/19 08:59:36;;;;;;;;;;;26.40;25.90;;;;;;4943206;29;19967;-69
2022/05/19 09:02:05;;;;;;;;;;;26.20;26.30;;;;;;4943289;29;19911;-71
2022/05/19 09:04:49;;;;;;;;;;;26.20;27.50;;;;;;4946736;29;19911;-67
2022/05/19 09:10:05;;;;;;;;;;;26.30;27.00;;;;;;4936635;29;20346;-67
2022/05/19 09:12:33;;;;;;;;;;;26.20;27.10;;;;;;4936399;29;19987;-65
2022/05/19 09:14:59;;;;;;;;;;;26.20;27.60;;;;;;4921723;29;19958;-68
2022/05/19 09:17:27;;;;;;;;;;;26.20;26.70;;;;;;4945112;29;19950;-68
2022/05/19 09:19:55;;;;;;;;;;;26.00;26.60;;;;;;4944713;29;19993;-66
2022/05/19 09:22:22;;;;;;;;;;;25.80;25.90;;;;;;4946269;29;19911;-68
2022/05/19 09:24:49;;;;;;;;;;;25.70;27.30;;;;;;4945440;29;19966;-69
2022/05/19 09:27:16;;;;;;;;;;;25.80;27.30;;;;;;4944202;29;19938;-67
2022/05/19 09:29:42;;;;;;;;;;;25.80;27.60;;;;;;4946466;29;19910;-69
2022/05/19 09:32:07;;;;;;;;;;;25.80;26.80;;;;;;4946727;29;19933;-69
2022/05/19 09:34:34;;;;;;;;;;;25.80;26.80;;;;;;4951848;29;19961;-72
2022/05/19 09:37:02;;;;;;;;;;;25.70;26.90;;;;;;4955478;28;19918;-64
2022/05/19 09:39:33;;;;;;;;;;;25.80;27.90;;;;;;4959182;29;20038;-71
2022/05/19 09:42:00;;;;;;;;;;;25.80;27.40;;;;;;4959256;29;19922;-76
2022/05/19 09:44:32;;;;;;;;;;;25.70;26.10;;;;;;4941280;29;19957;-67
2022/05/19 09:46:57;;;;;;;;;;;25.50;26.90;;;;;;4943587;29;19987;-66
2022/05/19 09:49:23;;;;;;;;;;;25.40;26.20;;;;;;4939359;29;20378;-66
2022/05/19 09:51:49;;;;;;;;;;;25.30;25.20;;;;;;4940024;29;19911;-67
2022/05/19 09:54:15;;;;;;;;;;;25.10;26.00;;;;;;4939966;29;20367;-67
2022/05/19 09:56:51;;;;;;;;;;;25.00;27.10;;;;;;4940087;29;19915;-65
2022/05/19 09:59:25;;;;;;;;;;;25.00;26.20;;;;;;4947272;29;19915;-64
2022/05/19 10:01:56;;;;;;;;;;;25.00;26.50;;;;;;4949602;29;19911;-68
2022/05/19 10:04:26;;;;;;;;;;;25.00;27.70;;;;;;4946682;29;19918;-65
2022/05/19 10:06:56;;;;;;;;;;;24.90;27.80;;;;;;4947938;29;19919;-65
2022/05/19 10:09:32;;;;;;;;;;;24.90;26.80;;;;;;4946406;29;20013;-64
2022/05/19 10:12:04;;;;;;;;;;;24.80;27.40;;;;;;4944760;29;19950;-66
2022/05/19 10:14:31;;;;;;;;;;;24.80;28.80;;;;;;4948113;29;19934;-68
2022/05/19 10:17:22;;;;;;;;;;;24.80;27.90;;;;;;4949564;29;19966;-74
2022/05/19 10:20:03;;;;;;;;;;;24.80;28.90;;;;;;4950934;29;20262;-73
2022/05/19 10:22:29;;;;;;;;;;;24.90;28.40;;;;;;4941414;29;20334;-64
2022/05/19 10:24:57;;;;;;;;;;;24.80;28.10;;;;;;4958345;29;19911;-69
2022/05/19 10:33:23;;;;;;;;;;;24.90;29.40;;;;;;4946000;29;19966;-66
2022/05/19 10:35:56;;;;;;;;;;;24.90;29.60;;;;;;4945173;29;20386;-73
2022/05/19 10:38:28;;;;;;;;;;;24.90;34.00;;;;;;4937816;29;19911;-65
2022/05/19 10:40:56;;;;;;;;;;;24.80;27.60;;;;;;4938818;29;20009;-66
2022/05/19 10:43:42;;;;;;;;;;;24.80;30.50;;;;;;4938741;29;19911;-66
2022/05/19 10:46:10;;;;;;;;;;;24.70;28.90;;;;;;4938400;29;20001;-67
2022/05/19 10:48:41;;;;;;;;;;;24.70;30.10;;;;;;4938291;29;19936;-67
2022/05/19 10:51:15;;;;;;;;;;;24.60;28.30;;;;;;4938916;29;19915;-66
2022/05/19 10:53:43;;;;;;;;;;;24.60;30.10;;;;;;4938837;29;20439;-65
2022/05/19 10:56:43;;;;;;;;;;;24.60;29.50;;;;;;4938775;29;19958;-65
2022/05/19 10:59:29;;;;;;;;;;;24.60;29.40;;;;;;4927559;29;19967;-65
2022/05/19 11:02:01;;;;;;;;;;;24.60;30.60;;;;;;4938674;29;20294;-65
2022/05/19 11:04:45;;;;;;;;;;;24.50;30.80;;;;;;4938561;29;19918;-69
2022/05/19 11:07:23;;;;;;;;;;;24.60;32.70;;;;;;4947342;29;20480;-67
2022/05/19 11:09:49;;;;;;;;;;;24.60;32.60;;;;;;4954198;29;19911;-66
2022/05/19 11:12:19;;;;;;;;;;;24.60;31.80;;;;;;4954954;29;19917;-65
2022/05/19 11:14:48;;;;;;;;;;;24.70;32.70;;;;;;4952742;29;19974;-67
2022/05/19 11:17:20;;;;;;;;;;;24.50;33.40;;;;;;4943808;29;20498;-67
2022/05/19 11:20:05;;;;;;;;;;;24.50;34.10;;;;;;4938883;29;20349;-66
2022/05/19 11:22:32;;;;;;;;;;;24.40;34.10;;;;;;4938818;29;19917;-72
2022/05/19 11:27:49;;;;;;;;;;;24.50;32.10;;;;;;4947524;29;19959;-66
2022/05/19 11:30:18;;;;;;;;;;;24.50;33.10;;;;;;4954147;29;20002;-64
2022/05/19 11:32:44;;;;;;;;;;;24.50;32.00;;;;;;4954324;29;19915;-67
2022/05/19 11:35:27;;;;;;;;;;;24.50;32.10;;;;;;4948078;29;19919;-63
2022/05/19 11:37:59;;;;;;;;;;;24.50;32.30;;;;;;4953191;29;19921;-64
2022/05/19 11:40:33;;;;;;;;;;;24.60;32.00;;;;;;4947687;29;20349;-65
2022/05/19 11:43:06;;;;;;;;;;;24.60;30.70;;;;;;4937963;29;19922;-65
2022/05/19 11:45:52;;;;;;;;;;;24.60;32.50;;;;;;4937712;29;19910;-63
2022/05/19 11:56:58;;;;;;;;;;;24.50;29.80;;;;;;4936593;29;19922;-64
2022/05/19 11:59:25;;;;;;;;;;;24.60;31.30;;;;;;4935964;29;19919;-64
2022/05/19 12:01:51;;;;;;;;;;;24.60;30.90;;;;;;4936660;29;20252;-64
2022/05/19 12:04:27;;;;;;;;;;;24.60;30.20;;;;;;4937561;29;20006;-62
2022/05/19 12:06:55;;;;;;;;;;;24.60;31.30;;;;;;4937328;29;19974;-64
2022/05/19 12:09:26;;;;;;;;;;;24.60;30.80;;;;;;4937903;29;20375;-63
2022/05/19 12:11:55;;;;;;;;;;;24.60;31.60;;;;;;4938068;29;19911;-63
2022/05/19 12:14:24;;;;;;;;;;;24.60;32.80;;;;;;4952475;29;19919;-65
2022/05/19 12:16:58;;;;;;;;;;;24.60;33.60;;;;;;4938085;29;19910;-66
2022/05/19 12:19:58;;;;;;;;;;;24.60;34.00;;;;;;4950717;29;19910;-64
2022/05/19 12:22:26;;;;;;;;;;;24.60;34.90;;;;;;4929630;29;19919;-66
2022/05/19 12:25:04;;;;;;;;;;;24.70;34.70;;;;;;4940475;29;19991;-64
2022/05/19 12:27:36;;;;;;;;;;;24.70;35.10;;;;;;4938692;29;20033;-63
2022/05/19 12:33:01;;;;;;;;;;;24.80;35.30;;;;;;4936146;29;20324;-65
2022/05/19 12:35:28;;;;;;;;;;;24.80;36.10;;;;;;4919564;29;20359;-64
2022/05/19 12:38:01;;;;;;;;;;;24.80;36.80;;;;;;4936774;29;19915;-64
2022/05/19 12:40:28;;;;;;;;;;;24.70;36.60;;;;;;4936727;29;19917;-68
2022/05/19 12:43:12;;;;;;;;;;;24.80;37.30;;;;;;4936605;29;20282;-66
2022/05/19 12:45:41;;;;;;;;;;;24.80;37.00;;;;;;4936638;29;19922;-64
2022/05/19 12:48:06;;;;;;;;;;;24.60;37.90;;;;;;4936538;29;19917;-64
2022/05/19 12:50:41;;;;;;;;;;;24.60;38.40;;;;;;4936462;29;20006;-67
2022/05/19 12:53:10;;;;;;;;;;;24.70;38.60;;;;;;4950989;29;19953;-65
2022/05/19 12:55:36;;;;;;;;;;;24.70;38.00;;;;;;4936315;29;20382;-65
2022/05/19 12:58:20;;;;;;;;;;;24.70;38.20;;;;;;4935869;29;19930;-63
2022/05/19 13:00:46;;;;;;;;;;;24.70;38.20;;;;;;4935689;29;19982;-64
2022/05/19 13:03:14;;;;;;;;;;;24.70;38.50;;;;;;4935665;29;20340;-64
2022/05/19 13:05:46;;;;;;;;;;;24.70;38.00;;;;;;4941273;29;20270;-63
2022/05/19 13:08:13;;;;;;;;;;;24.80;38.00;;;;;;4943033;29;19915;-61
2022/05/19 13:10:47;;;;;;;;;;;24.80;38.10;;;;;;4944860;29;19910;-62
2022/05/19 13:13:21;;;;;;;;;;;24.70;38.40;;;;;;4943418;28;20319;-67
2022/05/19 13:15:55;;;;;;;;;;;24.70;38.90;;;;;;4944562;29;19958;-63
2022/05/19 13:18:22;;;;;;;;;;;24.80;38.20;;;;;;4944856;29;20359;-64
2022/05/19 13:20:49;;;;;;;;;;;24.80;38.30;;;;;;4946466;29;20418;-62
2022/05/19 13:23:27;;;;;;;;;;;24.80;38.40;;;;;;4945910;29;19911;-69
2022/05/19 13:25:57;;;;;;;;;;;24.80;38.70;;;;;;4939856;29;19911;-69
2022/05/19 13:31:22;;;;;;;;;;;24.70;38.70;;;;;;4936121;29;19935;-63
2022/05/19 13:33:51;;;;;;;;;;;24.60;39.00;;;;;;4935640;29;20287;-60
2022/05/19 13:36:26;;;;;;;;;;;24.60;39.50;;;;;;4936323;29;19915;-65
2022/05/19 13:39:05;;;;;;;;;;;24.70;39.60;;;;;;4936218;29;19917;-61
2022/05/19 13:41:34;;;;;;;;;;;24.50;38.80;;;;;;4936316;29;19911;-63
2022/05/19 13:44:00;;;;;;;;;;;24.50;39.60;;;;;;4919531;29;19911;-65
2022/05/19 13:46:27;;;;;;;;;;;24.60;39.50;;;;;;4943435;29;19962;-66
2022/05/19 13:49:05;;;;;;;;;;;24.60;39.20;;;;;;4946124;29;19911;-67
2022/05/19 13:51:39;;;;;;;;;;;24.60;39.10;;;;;;4944859;29;19911;-65
2022/05/19 13:54:06;;;;;;;;;;;24.60;36.70;;;;;;4942899;29;19919;-64
2022/05/19 13:56:36;;;;;;;;;;;24.50;39.00;;;;;;4944373;29;19910;-72
2022/05/19 13:59:03;;;;;;;;;;;24.50;39.40;;;;;;4916984;29;20316;-66
2022/05/19 14:01:30;;;;;;;;;;;24.60;39.90;;;;;;4917215;29;19911;-61
2022/05/19 14:03:57;;;;;;;;;;;24.60;40.40;;;;;;4919640;29;19922;-68
2022/05/19 14:06:24;;;;;;;;;;;24.70;40.10;;;;;;4935898;29;19910;-66
2022/05/19 14:08:50;;;;;;;;;;;24.60;38.40;;;;;;4939635;29;19919;-63
2022/05/19 14:11:16;;;;;;;;;;;24.60;39.70;;;;;;4944031;29;19918;-63
2022/05/19 14:13:44;;;;;;;;;;;24.60;39.30;;;;;;4944169;29;19915;-65
2022/05/19 14:16:13;;;;;;;;;;;24.50;39.80;;;;;;4943546;29;19919;-64
2022/05/19 14:18:40;;;;;;;;;;;24.50;40.00;;;;;;4943669;29;19918;-68
2022/05/19 14:21:17;;;;;;;;;;;24.50;40.40;;;;;;4954013;29;20009;-71
2022/05/19 14:23:48;;;;;;;;;;;24.50;39.10;;;;;;4954525;28;20032;-64
2022/05/19 14:26:36;;;;;;;;;;;24.50;39.60;;;;;;4958561;28;20021;-65
2022/05/19 14:29:04;;;;;;;;;;;24.50;40.70;;;;;;4958616;29;19923;-64
2022/05/19 14:31:45;;;;;;;;;;;24.50;40.10;;;;;;4958232;29;20017;-66
2022/05/19 14:34:16;;;;;;;;;;;24.40;40.70;;;;;;4958201;29;19921;-57
2022/05/19 14:36:43;;;;;;;;;;;24.40;41.70;;;;;;4958122;29;20008;-58
2022/05/19 14:39:18;;;;;;;;;;;24.40;41.80;;;;;;4958171;29;19917;-63
2022/05/19 14:44:31;;;;;;;;;;;24.40;39.80;;;;;;4958587;29;19917;-62
2022/05/19 14:47:00;;;;;;;;;;;24.50;40.90;;;;;;4958802;29;20359;-63
2022/05/19 14:49:28;;;;;;;;;;;24.50;41.00;;;;;;4958085;29;19917;-63
2022/05/19 14:51:54;;;;;;;;;;;24.60;40.50;;;;;;4958359;29;20362;-63
2022/05/19 14:54:21;;;;;;;;;;;24.60;40.80;;;;;;4958315;29;19914;-61
2022/05/19 14:56:57;;;;;;;;;;;24.60;40.90;;;;;;4958020;29;20378;-61
2022/05/19 14:59:25;;;;;;;;;;;24.70;42.10;;;;;;4955662;29;20242;-59
2022/05/19 15:01:51;;;;;;;;;;;24.70;42.90;;;;;;4942459;29;19915;-62